Whitestown, Indiana
Current Conditions -  °F | °C
As of 3:35 PM on Wednesday 26 Nov 2014 (Local Time) from KTYQ Reporting Station
Clear Clear  
Wind Chill: 33°   Ceiling: Unl
Heat Index: 33°   Visibility: 10mi
Dew Point: 22°   Wind: 3mph
Humidity: 64%   Direction: 110°ESE
Pressure: 30.05"   Gusts: NA
Location:  40°N, 86.35°W
Report Text: KTYQ 262035Z AUTO 11003KT 10SM CLR 01/M05 A3005 RMK AO2 T00071055
Loading
Personal Weather Stations






























Interactive Weather Map New forecast layout! Learn more

10-Day Weather Forecast

Advertisements
Track Severe Weather on mobile